Flight Track Log - Related Links

Times and Time Zones

All times are in EDT time to prevent confusion due to time zone crossing. See the ASQ4209 flight status page for this flight to view local times or setup timezone preferences in your user account.

Time Position Orientation Groundspeed Altitude Reporting Facility
EDT Latitude Longitude Course Direction KTS MPH feet Rate Location/Type
Sat 04:16:55 PM 30.6189 -91.0497 43° Northeast 223 257 6,700  Level Houston Center
Sat 04:17:56 PM 30.6819 -91.0608 351° North 247 284 9,200 2,244 Climbing Houston Center
Sat 04:18:58 PM 30.6589 -91.1506 253° West 307 353 11,300 2,226 Climbing Houston Center
Sat 04:20:00 PM 30.6144 -91.2350 239° Southwest 309 356 13,800 1,984 Climbing Houston Center
Sat 04:21:00 PM 30.4597 -91.7771 237° Southwest  Level Estimated
Sat 04:21:02 PM 30.5458 -91.3103 223° Southwest 330 380 15,400  Level Houston Center
Sat 04:22:03 PM 30.4708 -91.3864 221° Southwest 350 403 17,200 2,000 Climbing Houston Center
Sat 04:23:05 PM 30.3775 -91.4794 221° Southwest 367 422 19,500 1,984 Climbing Houston Center
Sat 04:24:07 PM 30.2972 -91.5553 219° Southwest 371 427 21,300 1,210 Climbing Houston Center
Sat 04:25:09 PM 30.2167 -91.6356 221° Southwest 382 440 22,000 341 Climbing Houston Center
Sat 04:26:10 PM 30.1258 -91.7203 219° Southwest 417 480 22,000  Level Houston Center
Sat 04:27:12 PM 30.0311 -91.8125 220° Southwest 438 504 22,000  Level Houston Center
Sat 04:28:14 PM 29.9350 -91.9064 220° Southwest 448 516 22,000  Level Houston Center
Sat 04:29:15 PM 29.8389 -92.0006 220° Southwest 450 518 22,000  Level Houston Center
Sat 04:30:17 PM 29.7233 -92.1142 221° Southwest 452 520 22,000  Level Houston Center
Sat 04:31:19 PM 29.6281 -92.2078 221° Southwest 451 519 22,000  Level Houston Center
Sat 04:32:21 PM 29.5667 -92.3314 240° Southwest 452 520 22,000  Level Houston Center
Sat 04:33:22 PM 29.5053 -92.4561 241° Southwest 445 512 22,000  Level Houston Center
Sat 04:34:24 PM 29.4839 -92.5939 260° West 443 510 22,000  Level Houston Center
Sat 04:35:26 PM 29.4833 -92.7331 270° West 436 502 22,000 -48 Level Houston Center
Sat 04:36:28 PM 29.4847 -92.8733 271° West 438 504 21,900  Descending Houston Center
Sat 04:37:29 PM 29.4847 -93.0428 270° West 442 509 22,000 49 Climbing Houston Center
Sat 04:38:31 PM 29.4894 -93.1844 272° West 443 510 22,000  Level Houston Center
Sat 04:39:33 PM 29.4947 -93.3256 272° West 443 510 22,000  Level Houston Center
Sat 04:40:34 PM 29.4997 -93.4656 272° West 439 505 22,000  Level Houston Center
Sat 04:41:36 PM 29.5061 -93.6064 273° West 440 506 22,000 -242 Level Houston Center
Sat 04:42:38 PM 29.5117 -93.7464 273° West 439 505 21,500 -1,403 Descending Houston Center
Sat 04:43:40 PM 29.5164 -93.8844 272° West 433 498 19,100 -2,562 Descending Houston Center
Sat 04:44:07 PM 29.5194 -93.9697 272° West 431 496 17,700 -2,164 Descending Houston Center
Sat 04:44:41 PM 29.5222 -94.0208 274° West 429 494 16,900 -2,100 Descending Houston Center
Sat 04:45:27 PM 29.5264 -94.1419 272° West 412 474 14,900 -2,286 Descending Houston Center
Sat 04:45:44 PM 29.5275 -94.1714 272° West 414 476 14,500 -1,527 Descending Houston Center
Sat 04:46:22 PM 29.5294 -94.2544 272° West 397 457 13,500 -1,279 Descending Houston Center
Sat 04:46:45 PM 29.5317 -94.2944 274° West 392 451 13,200 -590 Descending Houston Center
Sat 04:47:23 PM 29.5456 -94.3750 281° West 348 400 12,900 -677 Descending Houston Center
Sat 04:47:47 PM 29.5572 -94.4006 298° West 352 405 12,500 -1,607 Descending Houston Center
Sat 04:48:19 PM 29.5867 -94.4706 296° West 372 428 11,400 -1,475 Descending Houston Center
Sat 04:48:48 PM 29.6036 -94.5086 297° West 375 432 11,000 -1,273 Descending Houston Center
Sat 04:49:25 PM 29.6386 -94.5936 295° West 378 435 10,000 -968 Descending Houston Center
Sat 04:49:50 PM 29.6514 -94.6156 304° West 378 435 10,000 -97 Level Houston Center
Sat 04:50:27 PM 29.6939 -94.6853 305° West 349 402 9,900  Descending Houston Center
Sat 04:50:52 PM 29.7106 -94.7308 293° West 362 417 10,000  Climbing Houston Center
Sat 04:51:28 PM 29.7303 -94.8011 288° West 381 438 9,900  Descending Houston Center
Sat 04:51:54 PM 29.7469 -94.8444 294° West 375 432 10,000  Climbing Houston Center
Sat 04:52:41 PM 29.7825 -94.9294 296° West 326 375 9,900 -98 Descending Houston Center
Sat 04:52:55 PM 29.7889 -94.9428 299° West 348 400 9,900 -840 Level Houston Center
Sat 04:53:31 PM 29.8100 -94.9983 294° West 274 315 9,200 -871 Descending Houston Center
Sat 04:53:57 PM 29.8222 -95.0231 300° West 287 330 9,000 -984 Descending Houston Center
Sat 04:54:32 PM 29.8472 -95.0828 296° West 301 346 8,200 -968 Descending Houston Center
Sat 04:54:59 PM 29.8581 -95.1081 296° West 296 341 8,000 -1,082 Descending Houston Center
Sat 04:55:33 PM 29.8828 -95.1700 295° West 296 341 7,100 -1,258 Descending Houston Center
Sat 04:56:01 PM 29.8986 -95.2103 294° West 295 339 6,700 -733 Descending Houston Center
Sat 04:57:03 PM 29.9008 -95.3019 272° West 290 334 6,000 -475 Descending Houston Center
Sat 04:57:42 PM 29.8986 -95.3656 268° West 293 337 5,900  Descending Houston Center
Sat 04:58:05 PM 29.9003 -95.3933 274° West 290 334 6,000 -1,672 Climbing Houston Center
Sat 04:58:43 PM 29.8997 -95.4475 269° West 244 281 4,200 -2,226 Descending Houston Center
Sat 04:59:07 PM 29.9031 -95.4700 280° West 253 291 3,700 -1,279 Descending Houston Center
Sat 04:59:44 PM 29.9358 -95.4961 325° Northwest 222 255 2,900 -677 Descending Houston Center
Sat 05:00:09 PM 29.9522 -95.4956 North 228 262 3,000 -194 Climbing Houston Center
Sat 05:00:46 PM 29.9800 -95.4739 34° Northeast 164 189 2,700 -677 Descending Houston Center
Sat 05:01:11 PM 29.9853 -95.4617 63° Northeast 195 224 2,300 -1,273 Descending Houston Center
Sat 05:01:52 PM 29.9922 -95.4244 78° East 126 145 1,300 -1,279 Descending Houston Center
Sat 05:02:12 PM 29.9944 -95.4100 80° East 157 181 1,000 -750 Descending Houston Center
Sat 05:02:48 PM 29.9933 -95.3903 94° East 117 135 600 -581 Descending Houston Center
Sat 05:03:14 PM 29.9939 -95.3722 88° East 135 155 400 -462 Descending Houston Center

Login

Don't have an account? Register now (free) for customized features, flight alerts, and more!